Ponca City, Oklahoma
Current Conditions -  °F | °C
As of 3:53 AM on Friday 28 Nov 2014 (Local Time) from KPNC Reporting Station
Clear Clear  
Wind Chill: 38°   Ceiling: Unl
Heat Index: 42°   Visibility: 10mi
Dew Point: 24°   Wind: 7mph
Humidity: 49%   Direction: 180°S
Pressure: 30.12"   Gusts: NA
Location:  36.7°N, 97.08°W
Report Text: KPNC 280953Z AUTO 18006KT 10SM CLR 06/M04 A3012 RMK AO2 SLP200 T00561044
Loading
Personal Weather Stations






























Interactive Weather Map New forecast layout! Learn more

10-Day Weather Forecast

Advertisements
Track Severe Weather on mobile